San Perlita, Texas
Current Conditions -  °F | °C
As of 12:52 PM on Thursday 23 Oct 2014 (Local Time) from KHRL Reporting Station
Scattered Clouds Scattered Clouds  
Wind Chill: 82°   Ceiling: Unl
Heat Index: 84°   Visibility: 10mi
Dew Point: 67°   Wind: 6mph
Humidity: 60%   Direction: 10°N
Pressure: 30.07"   Gusts: NA
Location:  26.5°N, 97.64°W
Report Text: KHRL 231752Z 01005KT 10SM SCT035 28/19 A3007 RMK AO2 SLP182 T02780194 10289 20183 58002
Loading
Personal Weather Stations






























Interactive Weather Map New forecast layout! Learn more

10-Day Weather Forecast

Advertisements
Track Severe Weather on mobile